createdAt,value
2018-08-11T00:00:34.738Z,99.30
2018-08-11T00:03:03.316Z,99.80
2018-08-11T00:05:33.020Z,99.90
2018-08-11T00:08:01.701Z,99.60
2018-08-11T00:10:30.465Z,99.90
2018-08-11T00:12:59.048Z,99.90
2018-08-11T00:15:27.634Z,99.90
2018-08-11T00:17:56.293Z,99.90
2018-08-11T00:20:26.778Z,99.90
2018-08-11T00:22:55.406Z,99.90
2018-08-11T00:25:24.019Z,99.90
2018-08-11T00:27:52.679Z,99.90
2018-08-11T00:30:21.632Z,99.90
2018-08-11T00:32:50.282Z,99.90
2018-08-11T00:35:18.882Z,99.90
2018-08-11T00:37:47.558Z,99.90
2018-08-11T00:40:17.491Z,99.90
2018-08-11T00:42:47.111Z,99.90
2018-08-11T00:45:16.396Z,99.90
2018-08-11T00:47:45.111Z,99.90
2018-08-11T00:50:19.135Z,99.90
2018-08-11T00:52:47.803Z,99.90
2018-08-11T00:55:16.401Z,99.90
2018-08-11T00:57:46.023Z,99.90
2018-08-11T01:00:19.011Z,99.90
2018-08-11T01:02:47.752Z,99.90
2018-08-11T01:05:19.000Z,99.90
2018-08-11T01:07:48.115Z,99.90
2018-08-11T01:10:17.117Z,99.90
2018-08-11T01:12:46.578Z,99.90
2018-08-11T01:15:18.152Z,99.90
2018-08-11T01:17:47.529Z,99.90
2018-08-11T01:20:16.459Z,99.90
2018-08-11T01:22:46.038Z,99.90
2018-08-11T01:25:15.167Z,99.90
2018-08-11T01:27:43.753Z,99.90
2018-08-11T01:30:14.590Z,99.90
2018-08-11T01:32:43.171Z,99.90
2018-08-11T01:35:12.179Z,99.90
2018-08-11T01:37:41.571Z,99.90
2018-08-11T01:40:11.722Z,99.90
2018-08-11T01:42:41.272Z,99.90
2018-08-11T01:45:11.106Z,99.90
2018-08-11T01:47:40.203Z,99.90
2018-08-11T01:50:10.221Z,99.90
2018-08-11T01:52:39.591Z,99.90
2018-08-11T01:55:08.207Z,99.90
2018-08-11T01:57:36.767Z,99.90
2018-08-11T02:00:07.298Z,99.90
2018-08-11T02:02:35.887Z,99.90
2018-08-11T02:05:04.822Z,99.90
2018-08-11T02:07:33.428Z,99.90
2018-08-11T02:10:02.065Z,99.90
2018-08-11T02:12:30.692Z,99.90
2018-08-11T02:14:59.300Z,99.90
2018-08-11T02:17:27.886Z,99.90
2018-08-11T02:19:56.476Z,99.90
2018-08-11T02:22:25.141Z,99.90
2018-08-11T02:24:53.795Z,99.90
2018-08-11T02:27:22.389Z,99.90
2018-08-11T02:29:50.957Z,99.90
2018-08-11T02:32:19.673Z,99.90
2018-08-11T02:34:48.262Z,99.90
2018-08-11T02:37:16.889Z,99.90
2018-08-11T02:39:45.445Z,99.90
2018-08-11T02:42:14.017Z,99.90
2018-08-11T02:44:42.603Z,99.90
2018-08-11T02:47:11.284Z,99.90
2018-08-11T02:49:40.072Z,99.90
2018-08-11T02:52:08.705Z,99.90
2018-08-11T02:54:37.300Z,99.90
2018-08-11T02:57:06.155Z,99.90
2018-08-11T02:59:34.733Z,99.90
2018-08-11T03:02:03.345Z,99.90
2018-08-11T03:04:31.929Z,99.90
2018-08-11T03:07:00.505Z,99.90
2018-08-11T03:09:29.094Z,99.90
2018-08-11T03:11:57.646Z,99.90
2018-08-11T03:14:26.278Z,99.90
2018-08-11T03:16:54.877Z,99.90
2018-08-11T03:19:23.669Z,99.90
2018-08-11T03:21:52.254Z,99.90
2018-08-11T03:24:20.838Z,99.90
2018-08-11T03:26:49.399Z,99.90
2018-08-11T03:29:17.990Z,99.90
2018-08-11T03:31:46.567Z,99.90
2018-08-11T03:34:15.169Z,99.90
2018-08-11T03:36:43.752Z,99.90
2018-08-11T03:39:13.015Z,99.90
2018-08-11T03:41:42.181Z,99.90
2018-08-11T03:44:11.197Z,99.90
2018-08-11T03:46:39.897Z,99.90
2018-08-11T03:49:08.496Z,99.90
2018-08-11T03:51:37.061Z,99.90
2018-08-11T03:54:05.725Z,99.90
2018-08-11T03:56:34.278Z,99.90
2018-08-11T03:59:02.950Z,99.90
2018-08-11T04:01:31.493Z,99.90
2018-08-11T04:04:00.057Z,99.90
2018-08-11T04:06:28.621Z,99.90
2018-08-11T04:08:57.201Z,99.90
2018-08-11T04:11:25.789Z,99.90
2018-08-11T04:13:54.334Z,99.90
2018-08-11T04:16:22.901Z,99.90
2018-08-11T04:18:51.459Z,99.90
2018-08-11T04:21:20.059Z,99.90
2018-08-11T04:23:48.612Z,99.90
2018-08-11T04:26:17.170Z,99.90
2018-08-11T04:28:45.714Z,99.90
2018-08-11T04:31:14.281Z,99.90
2018-08-11T04:33:42.814Z,99.90
2018-08-11T04:36:11.374Z,99.90
2018-08-11T04:38:39.957Z,99.90
2018-08-11T04:41:08.691Z,99.90
2018-08-11T04:43:37.257Z,99.90
2018-08-11T04:46:05.813Z,99.90
2018-08-11T04:48:34.452Z,99.90
2018-08-11T04:51:03.093Z,99.90
2018-08-11T04:53:31.661Z,99.90
2018-08-11T04:56:00.245Z,99.90
2018-08-11T04:58:28.841Z,99.90
2018-08-11T05:00:57.453Z,99.90
2018-08-11T05:03:26.129Z,99.90
2018-08-11T05:05:54.708Z,99.90
2018-08-11T05:08:23.331Z,99.90
2018-08-11T05:10:51.872Z,99.90
2018-08-11T05:13:20.536Z,99.90
2018-08-11T05:15:49.141Z,99.90
2018-08-11T05:18:18.105Z,99.90
2018-08-11T05:20:46.706Z,99.90
2018-08-11T05:23:15.310Z,99.90
2018-08-11T05:25:43.917Z,99.90
2018-08-11T05:28:12.569Z,99.90
2018-08-11T05:30:41.121Z,99.90
2018-08-11T05:33:09.787Z,99.90
2018-08-11T05:35:38.379Z,99.90
2018-08-11T05:38:06.997Z,99.90
2018-08-11T05:40:35.598Z,99.90
2018-08-11T05:43:04.216Z,99.90
2018-08-11T05:45:32.791Z,99.90
2018-08-11T05:48:01.481Z,99.90
2018-08-11T05:50:30.035Z,99.90
2018-08-11T05:52:58.669Z,99.90
2018-08-11T05:55:27.326Z,99.90
2018-08-11T05:57:56.050Z,99.90
2018-08-11T06:00:24.725Z,99.90
2018-08-11T06:02:53.353Z,99.90
2018-08-11T06:05:22.282Z,99.90
2018-08-11T06:07:50.920Z,99.90
2018-08-11T06:10:19.697Z,99.90
2018-08-11T06:12:48.323Z,99.90
2018-08-11T06:15:16.949Z,99.90
2018-08-11T06:17:45.592Z,99.90
2018-08-11T06:20:14.373Z,99.90
2018-08-11T06:22:43.470Z,99.90
2018-08-11T06:25:12.162Z,99.90
2018-08-11T06:27:41.195Z,99.90
2018-08-11T06:30:10.629Z,99.60
2018-08-11T06:32:39.609Z,98.70
2018-08-11T06:35:08.622Z,98.20
2018-08-11T06:37:37.607Z,97.90
2018-08-11T06:40:06.753Z,97.90
2018-08-11T06:42:35.614Z,97.50
2018-08-11T06:45:04.963Z,97.20
2018-08-11T06:47:33.736Z,97.10
2018-08-11T06:50:02.510Z,96.70
2018-08-11T06:52:31.203Z,95.60
2018-08-11T06:55:00.035Z,94.90
2018-08-11T06:57:28.849Z,94.50
2018-08-11T06:59:57.543Z,94.60
2018-08-11T07:02:26.245Z,94.10
2018-08-11T07:04:54.961Z,93.90
2018-08-11T07:07:23.730Z,93.60
2018-08-11T07:09:52.471Z,92.90
2018-08-11T07:12:21.331Z,92.70
2018-08-11T07:14:50.083Z,92.50
2018-08-11T07:17:18.837Z,91.80
2018-08-11T07:19:47.558Z,92.30
2018-08-11T07:22:16.288Z,91.00
2018-08-11T07:24:46.059Z,91.40
2018-08-11T07:27:14.932Z,91.00
2018-08-11T07:29:43.672Z,91.10
2018-08-11T07:32:12.429Z,91.40
2018-08-11T07:34:41.124Z,91.00
2018-08-11T07:37:09.914Z,90.50
2018-08-11T07:39:38.692Z,89.70
2018-08-11T07:42:07.515Z,88.70
2018-08-11T07:44:36.356Z,88.30
2018-08-11T07:47:05.509Z,88.20
2018-08-11T07:49:34.457Z,87.80
2018-08-11T07:52:03.336Z,88.50
2018-08-11T07:54:32.195Z,87.00
2018-08-11T07:57:00.953Z,85.70
2018-08-11T07:59:29.745Z,86.70
2018-08-11T08:01:58.434Z,85.60
2018-08-11T08:04:27.141Z,85.60
2018-08-11T08:06:56.008Z,86.50
2018-08-11T08:09:28.785Z,85.60
2018-08-11T08:11:57.527Z,85.70
2018-08-11T08:14:26.667Z,84.70
2018-08-11T08:16:55.492Z,85.70
2018-08-11T08:19:24.182Z,84.70
2018-08-11T08:21:53.285Z,83.30
2018-08-11T08:24:22.116Z,84.20
2018-08-11T08:26:50.912Z,84.20
2018-08-11T08:29:20.609Z,83.50
2018-08-11T08:31:49.348Z,84.40
2018-08-11T08:34:18.033Z,84.10
2018-08-11T08:36:46.645Z,83.80
2018-08-11T08:39:15.435Z,83.20
2018-08-11T08:41:44.294Z,85.00
2018-08-11T08:44:13.031Z,84.00
2018-08-11T08:46:42.020Z,84.50
2018-08-11T08:49:10.885Z,85.20
2018-08-11T08:51:39.607Z,84.10
2018-08-11T08:54:08.234Z,84.50
2018-08-11T08:56:36.857Z,84.80
2018-08-11T08:59:05.500Z,85.10
2018-08-11T09:01:34.413Z,85.80
2018-08-11T09:04:03.006Z,86.10
2018-08-11T09:06:31.582Z,85.80
2018-08-11T09:09:00.213Z,85.50
2018-08-11T09:11:28.809Z,86.00
2018-08-11T09:13:57.389Z,85.60
2018-08-11T09:16:26.031Z,84.30
2018-08-11T09:18:54.647Z,83.30
2018-08-11T09:21:23.337Z,83.80
2018-08-11T09:23:51.915Z,84.80
2018-08-11T09:26:20.490Z,84.10
2018-08-11T09:28:49.147Z,82.60
2018-08-11T09:31:17.730Z,82.90
2018-08-11T09:33:46.291Z,82.60
2018-08-11T09:36:14.842Z,82.50
2018-08-11T09:38:43.425Z,82.00
2018-08-11T09:41:12.058Z,81.90
2018-08-11T09:43:40.649Z,81.10
2018-08-11T09:46:09.294Z,81.50
2018-08-11T09:48:37.897Z,80.60
2018-08-11T09:51:06.572Z,80.50
2018-08-11T09:53:35.166Z,79.90
2018-08-11T09:56:03.793Z,80.50
2018-08-11T09:58:32.468Z,79.80
2018-08-11T10:01:06.383Z,79.60
2018-08-11T10:03:35.155Z,80.10
2018-08-11T10:06:03.981Z,77.70
2018-08-11T10:08:32.716Z,77.00
2018-08-11T10:11:01.381Z,77.40
2018-08-11T10:13:30.010Z,77.20
2018-08-11T10:15:58.625Z,76.30
2018-08-11T10:18:27.894Z,76.00
2018-08-11T10:20:56.570Z,76.80
2018-08-11T10:23:25.217Z,78.00
2018-08-11T10:25:53.912Z,78.70
2018-08-11T10:28:22.568Z,76.90
2018-08-11T10:30:51.858Z,76.20
2018-08-11T10:33:20.898Z,76.60
2018-08-11T10:35:49.905Z,73.40
2018-08-11T10:38:18.879Z,73.30
2018-08-11T10:40:47.892Z,75.60
2018-08-11T10:43:16.732Z,75.70
2018-08-11T10:45:45.797Z,76.70
2018-08-11T10:48:14.450Z,75.40
2018-08-11T10:50:43.056Z,76.30
2018-08-11T10:53:11.644Z,76.40
2018-08-11T10:55:40.453Z,75.50
2018-08-11T10:58:09.178Z,74.20
2018-08-11T11:00:37.858Z,75.70
2018-08-11T11:03:07.221Z,75.70
2018-08-11T11:05:35.825Z,75.30
2018-08-11T11:08:04.705Z,74.90
2018-08-11T11:10:33.457Z,74.40
2018-08-11T11:13:02.101Z,76.20
2018-08-11T11:15:30.790Z,74.20
2018-08-11T11:17:59.540Z,73.80
2018-08-11T11:20:28.199Z,74.10
2018-08-11T11:22:56.786Z,73.80
2018-08-11T11:25:25.367Z,75.10
2018-08-11T11:27:54.049Z,72.50
2018-08-11T11:30:22.630Z,74.00
2018-08-11T11:32:51.202Z,70.90
2018-08-11T11:35:19.853Z,71.20
2018-08-11T11:37:48.604Z,72.00
2018-08-11T11:40:17.212Z,70.90
2018-08-11T11:42:45.830Z,70.80
2018-08-11T11:45:14.486Z,71.00
2018-08-11T11:47:43.171Z,72.10
2018-08-11T11:50:11.818Z,70.10
2018-08-11T11:52:40.376Z,71.70
2018-08-11T11:55:09.007Z,72.50
2018-08-11T11:57:37.692Z,72.20
2018-08-11T12:00:06.495Z,72.50
2018-08-11T12:02:35.328Z,72.40
2018-08-11T12:05:04.002Z,73.40
2018-08-11T12:07:32.693Z,73.20
2018-08-11T12:10:01.464Z,70.90
2018-08-11T12:12:30.006Z,71.10
2018-08-11T12:14:58.654Z,68.80
2018-08-11T12:17:27.350Z,70.90
2018-08-11T12:19:56.010Z,70.70
2018-08-11T12:22:24.678Z,70.60
2018-08-11T12:24:53.273Z,70.30
2018-08-11T12:27:21.813Z,70.70
2018-08-11T12:29:50.422Z,67.70
2018-08-11T12:32:19.027Z,68.70
2018-08-11T12:34:47.653Z,68.90
2018-08-11T12:37:16.240Z,70.40
2018-08-11T12:39:44.830Z,67.30
2018-08-11T12:42:13.430Z,69.70
2018-08-11T12:44:42.148Z,69.10
2018-08-11T12:47:10.804Z,68.80
2018-08-11T12:49:39.628Z,67.60
2018-08-11T12:52:08.320Z,67.80
2018-08-11T12:54:36.933Z,66.90
2018-08-11T12:57:05.589Z,66.90
2018-08-11T12:59:34.336Z,66.50
2018-08-11T13:02:03.032Z,66.10
2018-08-11T13:04:31.662Z,66.20
2018-08-11T13:07:00.417Z,66.90
2018-08-11T13:09:28.991Z,67.10
2018-08-11T13:11:57.601Z,67.80
2018-08-11T13:14:26.276Z,63.80
2018-08-11T13:16:55.030Z,65.10
2018-08-11T13:19:23.679Z,65.60
2018-08-11T13:21:52.364Z,65.20
2018-08-11T13:24:21.098Z,63.60
2018-08-11T13:26:49.810Z,64.10
2018-08-11T13:29:18.399Z,64.20
2018-08-11T13:31:47.262Z,63.90
2018-08-11T13:34:15.945Z,64.30
2018-08-11T13:36:44.601Z,63.70
2018-08-11T13:39:13.277Z,65.50
2018-08-11T13:41:45.562Z,64.40
2018-08-11T13:44:15.091Z,64.20
2018-08-11T13:46:43.820Z,63.20
2018-08-11T13:49:12.567Z,62.80
2018-08-11T13:51:41.270Z,63.20
2018-08-11T13:54:09.964Z,63.70
2018-08-11T13:56:39.329Z,63.30
2018-08-11T13:59:08.562Z,63.90
2018-08-11T14:01:37.382Z,63.90
2018-08-11T14:04:05.966Z,61.50
2018-08-11T14:06:34.632Z,60.90
2018-08-11T14:09:04.449Z,62.30
2018-08-11T14:11:33.214Z,63.20
2018-08-11T14:14:01.889Z,61.10
2018-08-11T14:16:30.501Z,61.80
2018-08-11T14:18:59.166Z,62.60
2018-08-11T14:21:27.871Z,62.70
2018-08-11T14:23:56.497Z,63.90
2018-08-11T14:26:25.173Z,63.40
2018-08-11T14:28:53.793Z,63.30
2018-08-11T14:31:22.417Z,62.50
2018-08-11T14:33:51.214Z,64.10
2018-08-11T14:36:19.912Z,65.40
2018-08-11T14:38:48.575Z,65.60
2018-08-11T14:41:17.265Z,64.50
2018-08-11T14:43:46.057Z,65.10
2018-08-11T14:46:14.766Z,64.40
2018-08-11T14:48:43.398Z,63.10
2018-08-11T14:51:12.138Z,63.00
2018-08-11T14:53:40.747Z,63.10
2018-08-11T14:56:09.470Z,64.00
2018-08-11T14:58:38.135Z,64.40
2018-08-11T15:01:07.005Z,64.10
2018-08-11T15:03:35.631Z,65.30
2018-08-11T15:06:04.395Z,64.10
2018-08-11T15:08:32.981Z,63.90
2018-08-11T15:11:01.603Z,64.60
2018-08-11T15:13:30.191Z,64.10
2018-08-11T15:15:58.867Z,64.50
2018-08-11T15:18:27.482Z,63.50
2018-08-11T15:20:56.939Z,64.40
2018-08-11T15:23:25.565Z,63.20
2018-08-11T15:25:54.238Z,63.40
2018-08-11T15:28:23.014Z,64.40
2018-08-11T15:30:51.705Z,63.10
2018-08-11T15:33:20.302Z,63.30
2018-08-11T15:35:48.859Z,63.30
2018-08-11T15:38:17.451Z,63.10
2018-08-11T15:40:46.076Z,63.00
2018-08-11T15:43:14.681Z,62.70
2018-08-11T15:45:43.354Z,61.60
2018-08-11T15:48:12.026Z,63.00
2018-08-11T15:50:40.619Z,63.20
2018-08-11T15:53:09.849Z,62.50
2018-08-11T15:55:38.641Z,60.90
2018-08-11T15:58:07.334Z,62.30
2018-08-11T16:00:36.161Z,61.60
2018-08-11T16:03:04.852Z,60.50
2018-08-11T16:05:33.460Z,60.10
2018-08-11T16:08:02.134Z,60.60
2018-08-11T16:10:30.753Z,61.00
2018-08-11T16:12:59.381Z,61.60
2018-08-11T16:15:28.067Z,60.50
2018-08-11T16:17:56.757Z,60.00
2018-08-11T16:20:25.364Z,59.70
2018-08-11T16:22:54.042Z,59.40
2018-08-11T16:25:22.758Z,59.50
2018-08-11T16:27:51.390Z,60.00
2018-08-11T16:30:20.069Z,60.10
2018-08-11T16:32:48.684Z,60.00
2018-08-11T16:35:17.349Z,60.10
2018-08-11T16:37:45.985Z,60.80
2018-08-11T16:40:14.615Z,60.10
2018-08-11T16:42:43.349Z,60.80
2018-08-11T16:45:11.946Z,60.50
2018-08-11T16:47:40.590Z,61.70
2018-08-11T16:50:09.271Z,61.20
2018-08-11T16:52:38.038Z,61.40
2018-08-11T16:55:06.694Z,61.00
2018-08-11T16:57:35.270Z,61.60
2018-08-11T17:00:04.297Z,60.50
2018-08-11T17:02:32.875Z,60.30
2018-08-11T17:05:01.590Z,60.30
2018-08-11T17:07:30.266Z,59.80
2018-08-11T17:09:58.917Z,60.20
2018-08-11T17:12:27.482Z,60.50
2018-08-11T17:14:56.142Z,60.40
2018-08-11T17:17:24.782Z,60.10
2018-08-11T17:19:53.353Z,60.00
2018-08-11T17:22:21.902Z,59.80
2018-08-11T17:24:50.537Z,60.40
2018-08-11T17:27:19.213Z,60.30
2018-08-11T17:29:47.816Z,60.30
2018-08-11T17:32:16.788Z,60.20
2018-08-11T17:34:45.425Z,60.00
2018-08-11T17:37:14.006Z,60.00
2018-08-11T17:39:42.655Z,59.90
2018-08-11T17:42:11.329Z,60.20
2018-08-11T17:44:39.880Z,60.50
2018-08-11T17:47:08.550Z,59.90
2018-08-11T17:49:37.444Z,60.20
2018-08-11T17:52:06.222Z,59.70
2018-08-11T17:54:34.894Z,60.50
2018-08-11T17:57:03.476Z,60.30
2018-08-11T17:59:32.026Z,60.70
2018-08-11T18:02:00.593Z,60.50
2018-08-11T18:04:29.166Z,60.40
2018-08-11T18:06:57.816Z,60.70
2018-08-11T18:09:26.367Z,61.40
2018-08-11T18:11:54.939Z,61.40
2018-08-11T18:14:23.485Z,61.60
2018-08-11T18:16:52.085Z,62.30
2018-08-11T18:19:20.689Z,63.40
2018-08-11T18:21:49.286Z,61.70
2018-08-11T18:24:17.859Z,62.70
2018-08-11T18:26:46.500Z,62.70
2018-08-11T18:29:15.042Z,64.10
2018-08-11T18:31:43.675Z,63.70
2018-08-11T18:34:12.280Z,65.00
2018-08-11T18:36:40.842Z,65.70
2018-08-11T18:39:11.724Z,66.30
2018-08-11T18:41:40.325Z,67.30
2018-08-11T18:44:09.070Z,67.40
2018-08-11T18:46:38.016Z,67.50
2018-08-11T18:49:06.815Z,67.40
2018-08-11T18:51:35.785Z,67.50
2018-08-11T18:54:04.721Z,67.80
2018-08-11T18:56:33.489Z,68.00
2018-08-11T18:59:02.264Z,68.50
2018-08-11T19:01:30.917Z,68.90
2018-08-11T19:03:59.601Z,69.60
2018-08-11T19:06:28.491Z,71.70
2018-08-11T19:08:57.239Z,70.70
2018-08-11T19:11:25.908Z,70.60
2018-08-11T19:13:54.575Z,72.80
2018-08-11T19:16:23.290Z,72.60
2018-08-11T19:18:52.058Z,71.90
2018-08-11T19:21:20.718Z,72.40
2018-08-11T19:23:49.361Z,72.10
2018-08-11T19:26:18.017Z,72.70
2018-08-11T19:28:46.645Z,73.60
2018-08-11T19:31:15.272Z,74.10
2018-08-11T19:33:43.909Z,75.20
2018-08-11T19:36:12.557Z,76.00
2018-08-11T19:38:41.236Z,76.00
2018-08-11T19:41:09.841Z,76.60
2018-08-11T19:43:38.484Z,75.50
2018-08-11T19:46:07.254Z,75.90
2018-08-11T19:48:35.859Z,76.30
2018-08-11T19:51:04.485Z,76.20
2018-08-11T19:53:33.106Z,76.90
2018-08-11T19:56:01.779Z,76.50
2018-08-11T19:58:30.369Z,77.00
2018-08-11T20:00:58.985Z,77.60
2018-08-11T20:03:27.566Z,77.90
2018-08-11T20:05:56.225Z,77.60
2018-08-11T20:08:24.822Z,77.70
2018-08-11T20:10:53.417Z,77.80
2018-08-11T20:13:21.957Z,78.20
2018-08-11T20:15:50.567Z,76.60
2018-08-11T20:18:19.163Z,75.90
2018-08-11T20:20:47.756Z,77.80
2018-08-11T20:23:16.329Z,78.00
2018-08-11T20:25:44.913Z,79.50
2018-08-11T20:28:13.989Z,80.00
2018-08-11T20:30:42.606Z,79.60
2018-08-11T20:33:11.215Z,79.50
2018-08-11T20:35:39.806Z,80.40
2018-08-11T20:38:08.471Z,81.10
2018-08-11T20:40:38.062Z,81.90
2018-08-11T20:43:06.751Z,82.20
2018-08-11T20:45:35.593Z,82.10
2018-08-11T20:48:04.347Z,83.40
2018-08-11T20:50:32.973Z,83.20
2018-08-11T20:53:01.749Z,84.10
2018-08-11T20:55:30.338Z,84.30
2018-08-11T20:57:58.968Z,83.30
2018-08-11T21:00:27.634Z,82.20
2018-08-11T21:02:56.215Z,81.80
2018-08-11T21:05:24.765Z,83.80
2018-08-11T21:07:53.348Z,84.70
2018-08-11T21:10:21.964Z,84.90
2018-08-11T21:12:50.636Z,86.10
2018-08-11T21:15:19.238Z,85.60
2018-08-11T21:17:47.825Z,86.50
2018-08-11T21:20:16.421Z,85.70
2018-08-11T21:22:45.002Z,86.20
2018-08-11T21:25:13.582Z,86.70
2018-08-11T21:27:42.205Z,87.90
2018-08-11T21:30:12.864Z,86.70
2018-08-11T21:32:41.771Z,86.10
2018-08-11T21:35:10.433Z,87.20
2018-08-11T21:37:39.067Z,87.70
2018-08-11T21:40:10.103Z,87.40
2018-08-11T21:42:38.759Z,88.40
2018-08-11T21:45:07.764Z,87.70
2018-08-11T21:47:36.378Z,86.70
2018-08-11T21:50:05.645Z,88.00
2018-08-11T21:52:34.332Z,88.00
2018-08-11T21:55:02.885Z,89.10
2018-08-11T21:57:31.553Z,88.60
2018-08-11T22:00:00.165Z,88.00
2018-08-11T22:02:28.749Z,88.10
2018-08-11T22:04:57.373Z,88.80
2018-08-11T22:07:26.063Z,88.70
2018-08-11T22:09:54.630Z,89.40
2018-08-11T22:12:23.330Z,89.20
2018-08-11T22:14:51.971Z,90.20
2018-08-11T22:17:20.577Z,90.50
2018-08-11T22:19:49.221Z,90.10
2018-08-11T22:22:17.886Z,90.10
2018-08-11T22:24:46.476Z,90.30
2018-08-11T22:27:15.125Z,90.30
2018-08-11T22:29:43.710Z,90.30
2018-08-11T22:32:12.321Z,90.60
2018-08-11T22:34:40.877Z,90.90
2018-08-11T22:37:09.445Z,91.30
2018-08-11T22:39:38.108Z,90.90
2018-08-11T22:42:07.082Z,90.60
2018-08-11T22:44:35.637Z,90.60
2018-08-11T22:47:04.446Z,90.60
2018-08-11T22:49:32.984Z,90.80
2018-08-11T22:52:01.602Z,90.90
2018-08-11T22:54:30.169Z,91.10
2018-08-11T22:56:58.806Z,91.10
2018-08-11T22:59:27.343Z,91.20
2018-08-11T23:01:55.893Z,92.10
2018-08-11T23:04:24.527Z,91.90
2018-08-11T23:06:53.054Z,92.10
2018-08-11T23:09:21.613Z,92.00
2018-08-11T23:11:50.123Z,92.10
2018-08-11T23:14:18.768Z,92.70
2018-08-11T23:16:47.346Z,93.20
2018-08-11T23:19:15.926Z,93.10
2018-08-11T23:21:44.489Z,93.00
2018-08-11T23:24:13.048Z,93.00
2018-08-11T23:26:41.569Z,92.90
2018-08-11T23:29:10.101Z,93.50
2018-08-11T23:31:38.633Z,94.50
2018-08-11T23:34:07.225Z,94.00
2018-08-11T23:36:35.749Z,94.10
2018-08-11T23:39:06.092Z,93.80
2018-08-11T23:41:34.700Z,94.00
2018-08-11T23:44:03.337Z,94.20
2018-08-11T23:46:31.880Z,94.00
2018-08-11T23:49:00.552Z,94.40
2018-08-11T23:51:29.076Z,94.60
2018-08-11T23:53:57.669Z,95.40
2018-08-11T23:56:26.293Z,94.90
2018-08-11T23:58:54.900Z,94.60
